createdAt,value
2022-11-21T00:01:17.501Z,11.25
2022-11-21T00:03:46.611Z,0.70
2022-11-21T00:06:16.122Z,5.15
2022-11-21T00:08:46.772Z,1.38
2022-11-21T00:11:16.094Z,2.40
2022-11-21T00:13:45.418Z,2.22
2022-11-21T00:16:16.668Z,6.50
2022-11-21T00:18:45.711Z,6.10
2022-11-21T00:21:16.552Z,6.43
2022-11-21T00:23:48.233Z,9.68
2022-11-21T00:26:17.947Z,3.78
2022-11-21T00:28:47.007Z,5.50
2022-11-21T00:31:25.251Z,5.25
2022-11-21T00:33:54.292Z,5.07
2022-11-21T00:36:23.164Z,0.65
2022-11-21T00:38:53.395Z,4.72
2022-11-21T00:41:22.285Z,1.83
2022-11-21T00:43:51.243Z,0.00
2022-11-21T00:46:20.084Z,0.10
2022-11-21T00:48:48.968Z,0.10
2022-11-21T00:51:18.037Z,0.10
2022-11-21T00:53:46.923Z,0.20
2022-11-21T00:56:17.195Z,0.10
2022-11-21T00:58:46.479Z,0.50
2022-11-21T01:01:17.052Z,0.70
2022-11-21T01:03:46.988Z,0.90
2022-11-21T01:06:17.130Z,2.72
2022-11-21T01:08:46.246Z,2.30
2022-11-21T01:11:19.976Z,12.57
2022-11-21T01:13:49.902Z,10.88
2022-11-21T01:16:21.166Z,9.02
2022-11-21T01:18:50.080Z,8.00
2022-11-21T01:21:23.633Z,15.60
2022-11-21T01:23:52.832Z,10.85
2022-11-21T01:26:25.723Z,11.55
2022-11-21T01:28:55.012Z,11.90
2022-11-21T01:31:26.165Z,3.65
2022-11-21T01:33:55.833Z,7.63
2022-11-21T01:36:27.703Z,11.98
2022-11-21T01:38:58.966Z,2.75
2022-11-21T01:41:33.620Z,1.70
2022-11-21T01:44:03.303Z,3.72
2022-11-21T01:46:32.158Z,4.68
2022-11-21T01:49:05.767Z,1.05
2022-11-21T01:51:38.667Z,1.95
2022-11-21T01:54:11.625Z,2.35
2022-11-21T01:56:47.951Z,0.40
2022-11-21T01:59:22.828Z,0.73
2022-11-21T02:01:55.092Z,0.22
2022-11-21T02:04:27.797Z,0.52
2022-11-21T02:06:56.847Z,0.28
2022-11-21T02:09:27.523Z,0.90
2022-11-21T02:12:02.001Z,0.10
2022-11-21T02:14:31.363Z,0.10
2022-11-21T02:17:04.835Z,0.32
2022-11-21T02:19:43.868Z,0.55
2022-11-21T02:22:21.438Z,1.98
2022-11-21T02:25:08.510Z,1.27
2022-11-21T02:27:37.544Z,2.78
2022-11-21T02:30:10.023Z,0.43
2022-11-21T02:32:41.450Z,0.47
2022-11-21T02:35:10.589Z,0.65
2022-11-21T02:37:39.572Z,1.90
2022-11-21T02:40:13.957Z,2.67
2022-11-21T02:42:52.563Z,1.30
2022-11-21T02:45:26.408Z,2.15
2022-11-21T02:48:00.853Z,8.95
2022-11-21T02:50:34.386Z,6.45
2022-11-21T02:53:06.003Z,2.90
2022-11-21T02:55:36.785Z,1.63
2022-11-21T02:58:06.584Z,0.65
2022-11-21T03:00:36.893Z,1.08
2022-11-21T03:03:05.831Z,0.57
2022-11-21T03:05:34.758Z,11.43
2022-11-21T03:08:04.190Z,1.42
2022-11-21T03:10:33.658Z,1.23
2022-11-21T03:13:03.942Z,1.55
2022-11-21T03:15:34.587Z,0.55
2022-11-21T03:18:04.473Z,1.13
2022-11-21T03:20:34.724Z,1.65
2022-11-21T03:23:04.240Z,2.90
2022-11-21T03:25:33.114Z,1.73
2022-11-21T03:28:03.351Z,1.10
2022-11-21T03:30:32.820Z,1.63
2022-11-21T03:33:02.025Z,1.15
2022-11-21T03:35:30.860Z,3.15
2022-11-21T03:37:59.736Z,6.90
2022-11-21T03:40:28.583Z,7.22
2022-11-21T03:42:57.500Z,3.90
2022-11-21T03:45:27.758Z,17.35
2022-11-21T03:47:56.614Z,9.25
2022-11-21T03:50:25.508Z,8.77
2022-11-21T03:52:54.383Z,7.45
2022-11-21T03:55:23.312Z,5.47
2022-11-21T03:57:52.203Z,7.53
2022-11-21T04:00:21.253Z,13.52
2022-11-21T04:02:51.528Z,15.18
2022-11-21T04:05:20.598Z,15.52
2022-11-21T04:07:49.516Z,9.18
2022-11-21T04:10:19.294Z,3.47
2022-11-21T04:12:48.325Z,5.70
2022-11-21T04:15:17.290Z,13.27
2022-11-21T04:17:46.202Z,11.05
2022-11-21T04:20:17.493Z,16.88
2022-11-21T04:22:46.402Z,9.35
2022-11-21T04:25:15.371Z,9.60
2022-11-21T04:27:44.254Z,10.68
2022-11-21T04:30:14.101Z,13.40
2022-11-21T04:32:44.180Z,16.00
2022-11-21T04:35:13.028Z,12.77
2022-11-21T04:37:43.709Z,12.05
2022-11-21T04:40:14.544Z,10.73
2022-11-21T04:42:43.647Z,9.85
2022-11-21T04:45:13.747Z,25.10
2022-11-21T04:47:44.112Z,18.70
2022-11-21T04:50:15.133Z,16.02
2022-11-21T04:52:51.046Z,14.30
2022-11-21T04:55:20.366Z,11.13
2022-11-21T04:57:49.442Z,12.15
2022-11-21T05:00:23.938Z,8.95
2022-11-21T05:02:53.486Z,9.45
2022-11-21T05:05:26.085Z,7.70
2022-11-21T05:07:56.365Z,23.15
2022-11-21T05:10:25.300Z,10.30
2022-11-21T05:13:18.554Z,14.40
2022-11-21T05:15:51.508Z,11.48
2022-11-21T05:18:20.878Z,21.83
2022-11-21T05:20:49.719Z,15.50
2022-11-21T05:23:20.006Z,15.82
2022-11-21T05:25:48.974Z,15.80
2022-11-21T05:28:17.957Z,19.85
2022-11-21T05:30:46.857Z,18.40
2022-11-21T05:33:15.775Z,16.77
2022-11-21T05:35:44.972Z,16.83
2022-11-21T05:38:13.886Z,17.98
2022-11-21T05:40:44.203Z,36.20
2022-11-21T05:43:30.823Z,41.00
2022-11-21T05:45:59.772Z,40.03
2022-11-21T05:48:28.698Z,40.92
2022-11-21T05:50:57.596Z,52.47
2022-11-21T05:53:26.527Z,37.83
2022-11-21T05:55:56.903Z,29.65
2022-11-21T05:58:25.746Z,35.03
2022-11-21T06:00:59.985Z,21.13
2022-11-21T06:03:32.530Z,33.50
2022-11-21T06:06:03.242Z,24.15
2022-11-21T06:08:34.499Z,18.85
2022-11-21T06:11:06.981Z,22.25
2022-11-21T06:13:36.683Z,29.98
2022-11-21T06:16:07.090Z,21.60
2022-11-21T06:18:37.984Z,17.23
2022-11-21T06:21:08.688Z,11.75
2022-11-21T06:23:38.017Z,17.83
2022-11-21T06:26:10.357Z,18.92
2022-11-21T06:28:40.782Z,16.00
2022-11-21T06:31:11.203Z,13.50
2022-11-21T06:33:41.097Z,17.02
2022-11-21T06:36:12.228Z,28.33
2022-11-21T06:38:41.455Z,17.05
2022-11-21T06:41:14.487Z,15.50
2022-11-21T06:43:43.555Z,19.38
2022-11-21T06:46:13.252Z,20.15
2022-11-21T06:48:42.548Z,23.08
2022-11-21T06:51:17.594Z,16.95
2022-11-21T06:53:46.921Z,15.10
2022-11-21T06:56:17.492Z,7.80
2022-11-21T06:58:46.373Z,7.60
2022-11-21T07:01:15.621Z,8.95
2022-11-21T07:03:44.527Z,6.38
2022-11-21T07:06:13.706Z,6.90
2022-11-21T07:08:42.546Z,3.90
2022-11-21T07:11:29.045Z,5.28
2022-11-21T07:13:59.296Z,7.03
2022-11-21T07:16:31.862Z,4.47
2022-11-21T07:19:01.152Z,6.13
2022-11-21T07:21:30.025Z,4.25
2022-11-21T07:23:58.940Z,2.97
2022-11-21T07:26:27.845Z,3.40
2022-11-21T07:28:56.772Z,2.53
2022-11-21T07:31:26.974Z,2.03
2022-11-21T07:33:55.855Z,6.43
2022-11-21T07:36:24.852Z,5.72
2022-11-21T07:38:53.724Z,2.67
2022-11-21T07:41:22.577Z,2.50
2022-11-21T07:43:51.423Z,19.17
2022-11-21T07:46:20.269Z,3.92
2022-11-21T07:48:50.565Z,3.00
2022-11-21T07:51:19.433Z,2.22
2022-11-21T07:53:48.567Z,2.85
2022-11-21T07:56:17.970Z,2.90
2022-11-21T07:58:46.800Z,1.75
2022-11-21T08:01:16.139Z,1.88
2022-11-21T08:03:45.005Z,2.53
2022-11-21T08:06:15.306Z,2.38
2022-11-21T08:08:44.808Z,5.93
2022-11-21T08:11:13.710Z,3.55
2022-11-21T08:13:42.537Z,4.60
2022-11-21T08:16:11.424Z,1.52
2022-11-21T08:18:40.347Z,6.00
2022-11-21T08:21:09.212Z,2.40
2022-11-21T08:23:39.454Z,3.90
2022-11-21T08:26:11.311Z,1.95
2022-11-21T08:28:40.287Z,3.10
2022-11-21T08:31:09.246Z,4.72
2022-11-21T08:33:38.151Z,1.40
2022-11-21T08:36:07.890Z,2.00
2022-11-21T08:38:36.801Z,0.80
2022-11-21T08:41:24.869Z,3.90
2022-11-21T08:43:53.766Z,2.63
2022-11-21T08:46:27.286Z,1.38
2022-11-21T08:48:56.258Z,1.23
2022-11-21T08:51:25.220Z,1.63
2022-11-21T08:53:54.069Z,1.55
2022-11-21T08:56:24.680Z,1.67
2022-11-21T08:58:53.554Z,2.15
2022-11-21T09:01:22.496Z,1.35
2022-11-21T09:03:51.835Z,1.95
2022-11-21T09:06:20.744Z,3.67
2022-11-21T09:08:49.633Z,1.30
2022-11-21T09:11:18.505Z,2.17
2022-11-21T09:14:09.236Z,3.10
2022-11-21T09:17:00.676Z,3.38
2022-11-21T09:19:31.205Z,2.03
2022-11-21T09:22:00.595Z,3.25
2022-11-21T09:24:29.776Z,2.88
2022-11-21T09:26:58.608Z,1.85
2022-11-21T09:29:29.007Z,3.05
2022-11-21T09:31:58.118Z,2.17
2022-11-21T09:34:27.449Z,2.40
2022-11-21T09:36:56.753Z,1.52
2022-11-21T09:39:25.902Z,4.43
2022-11-21T09:42:08.583Z,0.93
2022-11-21T09:44:53.307Z,3.17
2022-11-21T09:47:26.234Z,1.93
2022-11-21T09:50:01.993Z,2.63
2022-11-21T09:52:38.491Z,1.10
2022-11-21T09:55:18.388Z,1.33
2022-11-21T09:57:50.201Z,1.38
2022-11-21T10:00:24.719Z,1.00
2022-11-21T10:02:53.906Z,1.08
2022-11-21T10:05:31.837Z,1.60
2022-11-21T10:08:07.247Z,0.95
2022-11-21T10:10:52.206Z,0.57
2022-11-21T10:13:33.225Z,0.93
2022-11-21T10:16:11.212Z,0.90
2022-11-21T10:19:05.693Z,0.77
2022-11-21T10:22:11.060Z,0.98
2022-11-21T10:24:51.488Z,4.18
2022-11-21T10:27:28.249Z,2.00
2022-11-21T10:30:03.529Z,2.15
2022-11-21T10:32:39.806Z,1.23
2022-11-21T10:35:16.681Z,0.30
2022-11-21T10:37:49.869Z,0.77
2022-11-21T10:40:36.925Z,0.55
2022-11-21T10:43:28.825Z,0.65
2022-11-21T10:45:57.815Z,1.00
2022-11-21T10:48:28.114Z,1.40
2022-11-21T10:51:19.272Z,0.60
2022-11-21T10:54:07.971Z,0.88
2022-11-21T10:56:38.251Z,0.40
2022-11-21T10:59:20.392Z,0.22
2022-11-21T11:01:57.241Z,0.88
2022-11-21T11:04:30.276Z,1.38
2022-11-21T11:07:22.517Z,0.70
2022-11-21T11:09:53.592Z,0.30
2022-11-21T11:12:46.881Z,0.20
2022-11-21T11:15:24.950Z,1.20
2022-11-21T11:17:57.547Z,0.25
2022-11-21T11:20:38.423Z,0.28
2022-11-21T11:23:26.980Z,0.43
2022-11-21T11:25:57.809Z,0.45
2022-11-21T11:28:28.500Z,0.38
2022-11-21T11:30:59.062Z,0.30
2022-11-21T11:33:33.234Z,1.38
2022-11-21T11:36:13.725Z,0.20
2022-11-21T11:38:48.253Z,0.40
2022-11-21T11:41:59.036Z,0.40
2022-11-21T11:44:55.048Z,0.32
2022-11-21T11:50:15.034Z,0.30
2022-11-21T11:52:56.933Z,0.70
2022-11-21T11:55:30.717Z,1.38
2022-11-21T11:58:03.720Z,2.60
2022-11-21T12:00:41.643Z,0.55
2022-11-21T12:03:16.596Z,2.10
2022-11-21T12:05:57.620Z,0.50
2022-11-21T12:08:41.718Z,0.50
2022-11-21T12:11:37.825Z,0.95
2022-11-21T12:14:39.424Z,0.57
2022-11-21T12:17:11.025Z,1.35
2022-11-21T12:19:41.014Z,1.10
2022-11-21T12:22:12.084Z,0.77
2022-11-21T12:24:43.351Z,0.95
2022-11-21T12:27:25.432Z,3.10
2022-11-21T12:30:07.476Z,1.50
2022-11-21T12:32:55.745Z,0.68
2022-11-21T12:35:43.262Z,0.85
2022-11-21T12:38:26.621Z,1.58
2022-11-21T12:41:27.966Z,1.13
2022-11-21T12:44:08.452Z,0.73
2022-11-21T12:46:47.099Z,18.83
2022-11-21T12:49:42.793Z,3.58
2022-11-21T12:52:47.238Z,0.60
2022-11-21T12:55:25.197Z,1.08
2022-11-21T12:58:10.751Z,0.50
2022-11-21T13:03:55.967Z,2.15
2022-11-21T13:06:27.841Z,0.55
2022-11-21T13:08:59.887Z,0.52
2022-11-21T13:12:01.081Z,2.05
2022-11-21T13:14:39.340Z,1.52
2022-11-21T13:17:22.056Z,2.75
2022-11-21T13:19:55.334Z,2.72
2022-11-21T13:22:49.784Z,1.23
2022-11-21T13:25:41.025Z,5.47
2022-11-21T13:28:35.791Z,3.83
2022-11-21T13:31:30.674Z,3.33
2022-11-21T13:34:00.389Z,1.35
2022-11-21T13:36:38.953Z,0.45
2022-11-21T13:39:36.352Z,2.50
2022-11-21T13:42:30.127Z,7.55
2022-11-21T13:44:59.619Z,0.77
2022-11-21T13:48:06.454Z,3.08
2022-11-21T13:50:52.279Z,1.70
2022-11-21T13:54:02.316Z,1.17
2022-11-21T13:56:38.271Z,1.75
2022-11-21T13:59:39.624Z,2.40
2022-11-21T14:02:32.222Z,2.30
2022-11-21T14:05:46.105Z,2.30
2022-11-21T14:08:20.413Z,1.27
2022-11-21T14:10:51.566Z,2.15
2022-11-21T14:13:26.109Z,1.90
2022-11-21T14:16:14.782Z,2.63
2022-11-21T14:18:47.251Z,2.13
2022-11-21T14:21:26.645Z,1.70
2022-11-21T14:23:58.031Z,1.67
2022-11-21T14:26:27.445Z,3.60
2022-11-21T14:29:22.964Z,3.50
2022-11-21T14:31:52.000Z,1.33
2022-11-21T14:34:28.607Z,1.30
2022-11-21T14:37:01.083Z,1.00
2022-11-21T14:39:43.681Z,2.75
2022-11-21T14:42:15.970Z,0.88
2022-11-21T14:44:46.216Z,5.22
2022-11-21T14:47:23.557Z,0.98
2022-11-21T14:49:58.691Z,0.73
2022-11-21T14:52:32.276Z,1.92
2022-11-21T14:57:53.207Z,0.50
2022-11-21T15:03:21.272Z,2.42
2022-11-21T15:06:08.147Z,0.98
2022-11-21T15:09:18.418Z,2.38
2022-11-21T15:11:36.130Z,0.75
2022-11-21T15:14:15.907Z,0.85
2022-11-21T15:16:49.094Z,1.42
2022-11-21T15:19:23.568Z,4.28
2022-11-21T15:21:54.227Z,3.50
2022-11-21T15:24:32.353Z,3.22
2022-11-21T15:27:01.345Z,1.45
2022-11-21T15:29:32.246Z,1.50
2022-11-21T15:32:15.810Z,1.23
2022-11-21T15:34:45.346Z,2.78
2022-11-21T15:37:17.341Z,4.97
2022-11-21T15:39:48.405Z,3.75
2022-11-21T15:42:37.020Z,2.30
2022-11-21T15:45:23.954Z,1.73
2022-11-21T15:47:55.626Z,4.43
2022-11-21T15:50:26.383Z,2.30
2022-11-21T15:52:55.395Z,1.83
2022-11-21T15:55:26.973Z,2.75
2022-11-21T15:57:55.921Z,2.35
2022-11-21T16:00:24.842Z,1.77
2022-11-21T16:02:55.123Z,3.75
2022-11-21T16:05:24.302Z,2.63
2022-11-21T16:07:53.258Z,5.00
2022-11-21T16:10:27.592Z,7.90
2022-11-21T16:12:57.294Z,4.10
2022-11-21T16:15:26.254Z,4.20
2022-11-21T16:17:56.567Z,3.70
2022-11-21T16:20:25.424Z,3.65
2022-11-21T16:22:54.314Z,4.93
2022-11-21T16:25:23.216Z,1.63
2022-11-21T16:27:52.113Z,3.45
2022-11-21T16:30:21.074Z,2.95
2022-11-21T16:32:51.303Z,2.25
2022-11-21T16:35:21.592Z,1.85
2022-11-21T16:37:52.202Z,3.53
2022-11-21T16:40:21.061Z,3.28
2022-11-21T16:42:49.914Z,3.22
2022-11-21T16:45:18.955Z,2.38
2022-11-21T16:47:49.124Z,3.55
2022-11-21T16:50:18.819Z,1.65
2022-11-21T16:52:49.724Z,1.83
2022-11-21T16:55:18.637Z,3.90
2022-11-21T16:57:47.763Z,1.52
2022-11-21T17:00:18.120Z,4.00
2022-11-21T17:02:47.129Z,3.67
2022-11-21T17:05:16.128Z,2.15
2022-11-21T17:07:45.033Z,1.95
2022-11-21T17:10:15.921Z,5.90
2022-11-21T17:12:45.246Z,16.52
2022-11-21T17:15:16.396Z,15.60
2022-11-21T17:17:45.264Z,13.88
2022-11-21T17:20:14.184Z,19.55
2022-11-21T17:22:43.115Z,12.65
2022-11-21T17:25:12.020Z,11.75
2022-11-21T17:27:42.342Z,11.60
2022-11-21T17:30:12.252Z,12.15
2022-11-21T17:32:41.235Z,10.57
2022-11-21T17:35:11.363Z,11.63
2022-11-21T17:37:40.727Z,10.38
2022-11-21T17:40:12.704Z,23.70
2022-11-21T17:42:43.587Z,9.75
2022-11-21T17:45:12.628Z,4.20
2022-11-21T17:47:42.290Z,5.18
2022-11-21T17:50:11.458Z,5.82
2022-11-21T17:52:40.390Z,3.38
2022-11-21T17:55:09.283Z,8.10
2022-11-21T17:57:38.151Z,11.02
2022-11-21T18:00:09.968Z,8.80
2022-11-21T18:02:38.943Z,16.27
2022-11-21T18:05:07.943Z,6.50
2022-11-21T18:07:37.824Z,14.27
2022-11-21T18:10:35.628Z,6.82
2022-11-21T18:12:59.269Z,8.70
2022-11-21T18:15:29.496Z,9.07
2022-11-21T18:17:58.418Z,8.75
2022-11-21T18:20:27.290Z,5.60
2022-11-21T18:22:56.319Z,4.63
2022-11-21T18:25:25.254Z,6.70
2022-11-21T18:27:54.860Z,19.73
2022-11-21T18:30:24.291Z,5.25
2022-11-21T18:32:54.860Z,4.60
2022-11-21T18:35:23.974Z,7.85
2022-11-21T18:37:52.918Z,7.45
2022-11-21T18:40:21.888Z,5.68
2022-11-21T18:42:50.783Z,11.13
2022-11-21T18:45:19.661Z,8.77
2022-11-21T18:47:48.540Z,4.15
2022-11-21T18:50:19.200Z,6.30
2022-11-21T18:52:48.129Z,7.85
2022-11-21T18:55:17.030Z,3.65
2022-11-21T18:57:47.000Z,6.35
2022-11-21T19:00:16.580Z,9.45
2022-11-21T19:02:45.580Z,4.25
2022-11-21T19:05:20.235Z,6.95
2022-11-21T19:10:41.935Z,3.67
2022-11-21T19:13:10.890Z,5.50
2022-11-21T19:15:39.953Z,29.90
2022-11-21T19:18:08.777Z,9.07
2022-11-21T19:20:37.928Z,4.32
2022-11-21T19:23:09.093Z,5.65
2022-11-21T19:25:37.995Z,3.90
2022-11-21T19:28:06.942Z,6.38
2022-11-21T19:30:36.279Z,7.05
2022-11-21T19:33:05.281Z,6.22
2022-11-21T19:35:34.293Z,8.38
2022-11-21T19:38:03.818Z,5.85
2022-11-21T19:40:54.811Z,3.28
2022-11-21T19:43:23.874Z,4.45
2022-11-21T19:45:57.840Z,5.78
2022-11-21T19:48:27.108Z,3.35
2022-11-21T19:50:58.630Z,5.75
2022-11-21T19:53:28.714Z,4.80
2022-11-21T19:55:59.001Z,5.10
2022-11-21T19:58:27.847Z,6.35
2022-11-21T20:01:06.419Z,5.05
2022-11-21T20:03:35.525Z,5.13
2022-11-21T20:06:06.211Z,4.72
2022-11-21T20:08:35.508Z,5.63
2022-11-21T20:11:13.107Z,4.85
2022-11-21T20:13:43.091Z,4.50
2022-11-21T20:16:19.430Z,4.88
2022-11-21T20:18:48.387Z,4.57
2022-11-21T20:21:18.427Z,6.03
2022-11-21T20:23:47.797Z,4.10
2022-11-21T20:26:19.719Z,8.95
2022-11-21T20:28:49.696Z,9.70
2022-11-21T20:31:20.287Z,2.30
2022-11-21T20:33:51.203Z,6.55
2022-11-21T20:36:23.772Z,10.52
2022-11-21T20:38:54.703Z,9.68
2022-11-21T20:41:26.839Z,7.80
2022-11-21T20:44:44.653Z,6.13
2022-11-21T20:46:45.148Z,7.32
2022-11-21T20:49:14.092Z,7.30
2022-11-21T20:53:31.332Z,4.45
2022-11-21T20:54:33.441Z,4.28
2022-11-21T20:57:03.782Z,6.60
2022-11-21T20:59:32.994Z,8.23
2022-11-21T21:02:02.181Z,7.32
2022-11-21T21:04:31.106Z,8.88
2022-11-21T21:07:00.029Z,14.88
2022-11-21T21:09:30.027Z,8.63
2022-11-21T21:11:59.168Z,9.82
2022-11-21T21:14:29.492Z,15.80
2022-11-21T21:16:58.415Z,11.45
2022-11-21T21:19:27.517Z,13.38
2022-11-21T21:21:56.697Z,10.45
2022-11-21T21:24:26.003Z,10.35
2022-11-21T21:26:54.939Z,13.93
2022-11-21T21:29:23.806Z,11.32
2022-11-21T21:31:54.437Z,9.10
2022-11-21T21:34:24.396Z,7.82
2022-11-21T21:36:53.310Z,12.82
2022-11-21T21:39:22.162Z,9.90
2022-11-21T21:41:51.483Z,9.38
2022-11-21T21:44:20.460Z,8.35
2022-11-21T21:46:49.355Z,11.90
2022-11-21T21:49:19.601Z,8.80
2022-11-21T21:51:48.511Z,11.25
2022-11-21T21:54:19.709Z,9.82
2022-11-21T21:56:49.505Z,10.63
2022-11-21T21:59:19.895Z,11.80
2022-11-21T22:01:49.243Z,9.82
2022-11-21T22:04:19.768Z,8.32
2022-11-21T22:06:48.694Z,9.50
2022-11-21T22:09:17.588Z,9.40
2022-11-21T22:11:46.495Z,14.30
2022-11-21T22:14:17.679Z,15.30
2022-11-21T22:16:46.614Z,12.80
2022-11-21T22:19:15.690Z,11.80
2022-11-21T22:21:45.963Z,9.93
2022-11-21T22:24:25.436Z,14.10
2022-11-21T22:26:55.431Z,11.02
2022-11-21T22:29:24.385Z,10.98
2022-11-21T22:31:53.249Z,9.90
2022-11-21T22:34:22.635Z,13.80
2022-11-21T22:36:52.951Z,13.20
2022-11-21T22:39:21.917Z,14.82
2022-11-21T22:41:51.159Z,15.32
2022-11-21T22:44:22.896Z,8.80
2022-11-21T22:46:51.835Z,17.95
2022-11-21T22:49:20.880Z,13.38
2022-11-21T22:51:49.775Z,19.55
2022-11-21T22:54:20.065Z,13.25
2022-11-21T22:56:48.930Z,11.43
2022-11-21T22:59:17.891Z,9.35
2022-11-21T23:01:46.833Z,8.95
2022-11-21T23:04:17.889Z,9.80
2022-11-21T23:06:46.999Z,12.75
2022-11-21T23:09:15.884Z,10.80
2022-11-21T23:11:46.118Z,10.02
2022-11-21T23:14:14.950Z,11.15
2022-11-21T23:16:43.943Z,8.68
2022-11-21T23:19:13.067Z,6.72
2022-11-21T23:21:42.195Z,10.55
2022-11-21T23:24:11.227Z,7.60
2022-11-21T23:26:40.134Z,8.38
2022-11-21T23:29:10.435Z,10.15
2022-11-21T23:31:39.315Z,9.30
2022-11-21T23:34:11.151Z,6.90
2022-11-21T23:36:40.325Z,8.32
2022-11-21T23:39:09.294Z,5.45
2022-11-21T23:41:38.793Z,5.45
2022-11-21T23:44:07.687Z,4.05
2022-11-21T23:46:37.973Z,8.40
2022-11-21T23:49:06.858Z,8.23
2022-11-21T23:51:35.862Z,7.47
2022-11-21T23:54:04.816Z,5.45
2022-11-21T23:56:33.724Z,5.32
2022-11-21T23:59:03.174Z,7.50
